Time;durP1;ratioP1;P1;durP2;ratioP2;P2;SDS_P1;SDS_P2;PMS_P1;PMS_P2;Temp;Humidity;BMP_temperature;BMP_pressure;BME280_temperature;BME280_humidity;BME280_pressure;Samples;Min_cycle;Max_cycle;Signal;HPM_P1;HPM_P2
2023/03/13 00:01:55;;;;;;;50.55;47.58;;;;;;;6.84;86.54;97711.31;5010666;28;20037;-75
2023/03/13 00:04:21;;;;;;;50.67;46.88;;;;;;;6.94;85.68;97708.88;4994004;28;20425;-75
2023/03/13 00:06:46;;;;;;;48.45;45.35;;;;;;;6.90;84.94;97699.69;5023836;28;20428;-75
2023/03/13 00:09:14;;;;;;;51.25;47.85;;;;;;;6.86;85.72;97701.19;4994073;28;20473;-75
2023/03/13 00:11:39;;;;;;;50.70;47.47;;;;;;;6.89;85.26;97700.72;4994195;28;20084;-75
2023/03/13 00:14:05;;;;;;;47.60;44.67;;;;;;;6.97;85.72;97689.69;5011602;28;20451;-75
2023/03/13 00:16:33;;;;;;;47.45;44.38;;;;;;;6.87;85.38;97678.75;5010424;28;20034;-75
2023/03/13 00:18:58;;;;;;;46.63;43.55;;;;;;;6.93;85.16;97687.72;5010718;28;20485;-75
2023/03/13 00:21:26;;;;;;;48.50;45.40;;;;;;;6.98;85.03;97680.59;5007344;28;20108;-75
2023/03/13 00:23:52;;;;;;;42.42;39.88;;;;;;;7.01;84.94;97683.84;5010167;28;20030;-75
2023/03/13 00:26:19;;;;;;;44.60;41.92;;;;;;;6.98;84.96;97679.75;5010492;28;20042;-75
2023/03/13 00:28:46;;;;;;;47.75;44.72;;;;;;;7.04;83.91;97672.69;4997470;28;20030;-75
2023/03/13 00:31:20;;;;;;;43.58;40.85;;;;;;;7.00;84.22;97671.53;5016325;28;20045;-75
2023/03/13 00:33:51;;;;;;;45.25;42.17;;;;;;;7.01;85.08;97679.31;5040451;28;20453;-75
2023/03/13 00:36:18;;;;;;;43.28;40.17;;;;;;;6.92;84.98;97676.19;4994696;28;20053;-75
2023/03/13 00:38:44;;;;;;;45.45;42.65;;;;;;;6.89;84.94;97682.00;5004977;28;20025;-75
2023/03/13 00:41:12;;;;;;;45.85;42.40;;;;;;;6.86;84.96;97674.41;5014081;28;20033;-75
2023/03/13 00:43:38;;;;;;;45.42;42.17;;;;;;;6.79;84.95;97663.03;4997254;28;20026;-75
2023/03/13 00:46:04;;;;;;;46.28;43.22;;;;;;;6.69;85.09;97667.34;5003970;28;20467;-75
2023/03/13 00:48:30;;;;;;;46.85;43.70;;;;;;;6.82;84.98;97667.09;5022950;28;20026;-75
2023/03/13 00:50:55;;;;;;;46.75;43.67;;;;;;;6.73;85.27;97665.81;4994376;28;20088;-75
2023/03/13 00:53:21;;;;;;;47.72;44.53;;;;;;;6.90;84.83;97662.22;5013817;28;20425;-75
2023/03/13 00:56:09;;;;;;;44.42;41.40;;;;;;;6.86;84.02;97661.03;5017598;28;20037;-75
2023/03/13 00:58:36;;;;;;;42.08;39.08;;;;;;;6.84;85.08;97657.78;4996002;28;20031;-75
2023/03/13 01:01:20;;;;;;;43.22;40.72;;;;;;;6.81;84.20;97663.59;5013610;28;20022;-75
2023/03/13 01:03:57;;;;;;;45.70;42.63;;;;;;;6.83;84.85;97666.88;5017485;28;20037;-75
2023/03/13 01:06:26;;;;;;;44.78;41.88;;;;;;;6.91;83.87;97657.66;5007934;28;20034;-75
2023/03/13 01:08:51;;;;;;;45.78;42.90;;;;;;;6.85;84.16;97654.06;5013580;28;20021;-74
2023/03/13 01:11:22;;;;;;;40.08;37.63;;;;;;;6.88;83.82;97653.59;5014623;28;20040;-75
2023/03/13 01:13:48;;;;;;;46.92;43.92;;;;;;;6.89;83.80;97633.81;5013362;28;20030;-74
2023/03/13 01:16:16;;;;;;;39.80;37.35;;;;;;;7.01;83.53;97643.69;5010424;28;20091;-75
2023/03/13 01:18:44;;;;;;;38.45;35.72;;;;;;;6.90;83.92;97635.47;4997084;28;20038;-75
2023/03/13 01:21:10;;;;;;;39.53;36.75;;;;;;;6.83;84.25;97628.59;5013018;28;20029;-75
2023/03/13 01:23:36;;;;;;;38.90;36.28;;;;;;;6.96;83.25;97629.16;4996814;28;20080;-74
2023/03/13 01:26:03;;;;;;;42.05;39.40;;;;;;;6.85;83.30;97632.66;5013305;28;20026;-75
2023/03/13 01:28:29;;;;;;;36.72;33.75;;;;;;;6.87;84.19;97635.91;4996881;28;20393;-73
2023/03/13 01:30:55;;;;;;;40.17;37.22;;;;;;;6.85;83.72;97627.31;5029598;28;20017;-74
2023/03/13 01:33:20;;;;;;;37.90;35.20;;;;;;;6.87;84.30;97614.50;5013046;28;20030;-74
2023/03/13 01:35:46;;;;;;;37.85;35.35;;;;;;;6.87;83.32;97614.50;4996632;28;20021;-74
2023/03/13 01:38:12;;;;;;;36.20;33.78;;;;;;;6.89;83.75;97617.75;5012656;28;20040;-74
2023/03/13 01:40:42;;;;;;;36.80;34.15;;;;;;;6.86;83.35;97618.22;5013909;28;20353;-73
2023/03/13 01:43:20;;;;;;;40.15;37.50;;;;;;;6.88;83.36;97605.41;5023300;28;20037;-73
2023/03/13 01:46:00;;;;;;;40.03;37.47;;;;;;;6.90;82.72;97606.00;4999043;28;20600;-73
2023/03/13 01:48:36;;;;;;;37.35;35.05;;;;;;;6.92;83.61;97598.56;5030065;28;20048;-73
2023/03/13 01:51:05;;;;;;;41.47;38.42;;;;;;;6.83;83.72;97597.31;4997168;28;20520;-74
2023/03/13 01:53:32;;;;;;;40.30;37.55;;;;;;;6.84;83.07;97596.22;4996291;28;20026;-74
2023/03/13 01:55:58;;;;;;;38.92;36.53;;;;;;;6.90;82.87;97598.00;5013268;28;20037;-75
2023/03/13 01:58:25;;;;;;;35.70;32.95;;;;;;;6.90;82.60;97598.00;4997134;28;20030;-74
2023/03/13 02:00:50;;;;;;;36.53;34.17;;;;;;;6.87;83.58;97598.44;4996176;28;20038;-74
2023/03/13 02:03:17;;;;;;;36.38;33.80;;;;;;;6.87;83.27;97581.56;5012302;28;20022;-75
2023/03/13 02:05:45;;;;;;;34.65;31.83;;;;;;;6.87;83.05;97571.69;4992958;28;20405;-75
2023/03/13 02:08:48;;;;;;;31.05;28.67;;;;;;;6.95;81.91;97584.69;4996355;28;20030;-74
2023/03/13 02:11:40;;;;;;;33.78;31.42;;;;;;;6.91;83.15;97566.66;4980435;28;20055;-74
2023/03/13 02:14:06;;;;;;;34.97;32.67;;;;;;;6.87;82.79;97573.53;5002279;28;20026;-73
2023/03/13 02:16:32;;;;;;;34.17;31.67;;;;;;;6.96;82.76;97564.91;5003013;28;20049;-75
2023/03/13 02:18:58;;;;;;;31.65;29.55;;;;;;;6.96;81.69;97564.91;5012243;28;20092;-75
2023/03/13 02:22:01;;;;;;;29.92;27.52;;;;;;;6.90;82.08;97555.16;4995994;28;20039;-75
2023/03/13 02:24:37;;;;;;;32.88;30.17;;;;;;;6.91;83.11;97547.94;5003969;28;20065;-76
2023/03/13 02:27:03;;;;;;;29.77;27.58;;;;;;;6.91;82.15;97539.91;4979692;28;20034;-76
2023/03/13 02:29:29;;;;;;;28.50;26.33;;;;;;;6.96;82.66;97546.19;4995688;28;20025;-76
2023/03/13 02:31:54;;;;;;;26.77;24.80;;;;;;;6.90;81.74;97541.78;4995132;28;20040;-74
2023/03/13 02:34:27;;;;;;;29.58;27.38;;;;;;;7.01;81.65;97528.59;4995486;28;20022;-73
2023/03/13 02:36:54;;;;;;;25.10;22.40;;;;;;;6.97;81.43;97529.06;5012172;28;20485;-75
2023/03/13 02:39:20;;;;;;;23.92;21.67;;;;;;;6.96;81.58;97524.75;5008270;28;20029;-75
2023/03/13 02:41:46;;;;;;;22.65;20.70;;;;;;;6.97;81.68;97525.59;5025375;28;20080;-75
2023/03/13 02:44:12;;;;;;;24.42;22.42;;;;;;;6.97;81.97;97522.91;4992111;28;20033;-72
2023/03/13 02:46:49;;;;;;;23.50;21.45;;;;;;;7.01;80.74;97524.03;5008611;28;20030;-73
2023/03/13 02:49:27;;;;;;;23.95;22.02;;;;;;;6.98;81.65;97528.00;5003899;28;20088;-76
2023/03/13 02:51:57;;;;;;;25.00;23.00;;;;;;;7.08;80.48;97523.91;5008123;28;20030;-75
2023/03/13 02:54:29;;;;;;;24.25;21.90;;;;;;;7.14;81.01;97513.03;5008322;28;20081;-76
2023/03/13 02:56:56;;;;;;;23.50;21.70;;;;;;;7.05;80.58;97502.97;5006228;28;20037;-75
2023/03/13 02:59:23;;;;;;;25.30;23.40;;;;;;;7.00;81.75;97505.56;4997448;28;20076;-75
2023/03/13 03:01:52;;;;;;;26.95;24.70;;;;;;;7.03;81.40;97505.88;5003785;28;20030;-76
2023/03/13 03:04:22;;;;;;;23.92;21.92;;;;;;;7.12;80.68;97492.94;4995378;28;20386;-75
2023/03/13 03:06:52;;;;;;;23.92;21.63;;;;;;;7.16;79.88;97502.13;4979959;28;20034;-76
2023/03/13 03:09:19;;;;;;;27.17;24.98;;;;;;;7.03;80.62;97505.06;5024901;28;20037;-75
2023/03/13 03:11:44;;;;;;;23.00;21.17;;;;;;;7.15;80.38;97497.81;4988579;28;20096;-72
2023/03/13 03:14:13;;;;;;;22.63;20.42;;;;;;;7.11;79.90;97491.31;5001842;28;20036;-72
2023/03/13 03:16:42;;;;;;;24.60;22.42;;;;;;;7.14;80.23;97490.84;4995504;28;20405;-75
2023/03/13 03:19:08;;;;;;;24.17;22.05;;;;;;;7.16;80.62;97497.56;5011199;28;20033;-75
2023/03/13 03:21:34;;;;;;;26.45;24.20;;;;;;;7.11;80.28;97485.94;5027601;28;20030;-74
2023/03/13 03:23:59;;;;;;;23.42;21.40;;;;;;;7.12;80.38;97488.38;5011034;28;20034;-73
2023/03/13 03:26:25;;;;;;;25.25;23.25;;;;;;;7.23;79.79;97492.88;5034992;28;20116;-74
2023/03/13 03:28:51;;;;;;;19.17;17.73;;;;;;;7.35;79.60;97498.19;5000519;28;20452;-74
2023/03/13 03:31:17;;;;;;;23.85;21.63;;;;;;;7.18;80.51;97489.28;5011237;28;20026;-74
2023/03/13 03:33:45;;;;;;;19.17;17.38;;;;;;;7.33;79.57;97492.22;4994645;28;20026;-75
2023/03/13 03:36:14;;;;;;;20.73;18.88;;;;;;;7.22;80.07;97488.56;5011461;28;20378;-74
2023/03/13 03:38:40;;;;;;;20.13;18.42;;;;;;;7.29;79.86;97483.06;5007459;28;20033;-74
2023/03/13 03:41:08;;;;;;;21.83;19.77;;;;;;;7.31;80.19;97486.31;5003345;28;20091;-74
2023/03/13 03:43:34;;;;;;;22.38;20.27;;;;;;;7.21;81.06;97480.78;5014930;28;20379;-75
2023/03/13 03:46:02;;;;;;;23.23;20.95;;;;;;;7.22;80.54;97467.16;5011050;28;20022;-74
2023/03/13 03:48:28;;;;;;;21.58;19.65;;;;;;;7.33;80.11;97468.13;5004288;28;20064;-72
2023/03/13 03:50:54;;;;;;;21.30;19.25;;;;;;;7.35;79.64;97461.47;4994124;28;20053;-74
2023/03/13 03:53:21;;;;;;;21.17;19.33;;;;;;;7.30;80.21;97458.75;5018788;28;20025;-74
2023/03/13 03:55:46;;;;;;;21.85;20.08;;;;;;;7.35;79.79;97449.97;5005360;28;20026;-74
2023/03/13 03:58:12;;;;;;;20.50;18.70;;;;;;;7.38;80.50;97452.16;5003246;28;20394;-73
2023/03/13 04:01:04;;;;;;;20.77;18.60;;;;;;;7.31;80.42;97440.78;5005559;28;20064;-75
2023/03/13 04:03:30;;;;;;;22.55;18.08;;;;;;;7.42;79.36;97434.56;5015431;28;20088;-75
2023/03/13 04:05:55;;;;;;;21.98;20.13;;;;;;;7.37;79.83;97431.78;4994129;28;20029;-75
2023/03/13 04:08:22;;;;;;;21.77;19.80;;;;;;;7.29;80.54;97424.16;5010453;28;20513;-75
2023/03/13 04:10:48;;;;;;;21.75;19.83;;;;;;;7.35;80.26;97413.28;4999262;28;20028;-74
2023/03/13 04:13:14;;;;;;;19.00;17.20;;;;;;;7.39;79.89;97408.25;5001693;28;20605;-74
2023/03/13 04:15:40;;;;;;;20.17;18.05;;;;;;;7.41;79.36;97411.50;5003404;28;20120;-74
2023/03/13 04:18:08;;;;;;;21.58;17.65;;;;;;;7.32;79.90;97405.75;5025179;28;20032;-73
2023/03/13 04:20:35;;;;;;;20.10;18.35;;;;;;;7.28;80.20;97391.19;5007771;28;20033;-72
2023/03/13 04:23:01;;;;;;;21.33;19.33;;;;;;;7.35;80.10;97391.84;5011023;28;20129;-72
2023/03/13 04:25:26;;;;;;;19.30;17.52;;;;;;;7.31;80.39;97389.91;5010652;28;20100;-72
2023/03/13 04:27:55;;;;;;;20.80;18.98;;;;;;;7.28;79.62;97385.03;4978547;28;20034;-72
2023/03/13 04:30:24;;;;;;;23.58;21.05;;;;;;;7.28;80.75;97379.69;5026054;28;20030;-73
2023/03/13 04:33:08;;;;;;;23.95;21.67;;;;;;;7.26;80.22;97376.44;5010400;28;20044;-74
2023/03/13 04:35:52;;;;;;;22.77;19.80;;;;;;;7.24;80.60;97367.81;5023753;28;20046;-74
2023/03/13 04:38:40;;;;;;;22.70;20.58;;;;;;;7.24;80.56;97371.31;5009474;28;20068;-74
2023/03/13 04:41:26;;;;;;;24.33;21.95;;;;;;;7.19;80.05;97375.78;4958902;28;20394;-74
2023/03/13 04:44:06;;;;;;;23.85;21.67;;;;;;;7.20;80.70;97362.16;5019801;28;20044;-74
2023/03/13 04:46:53;;;;;;;24.70;22.38;;;;;;;7.23;80.36;97393.00;5003397;28;20033;-74
2023/03/13 04:49:34;;;;;;;25.30;23.38;;;;;;;7.22;80.82;97386.81;5017935;28;20034;-74
2023/03/13 04:52:09;;;;;;;25.58;23.23;;;;;;;7.23;80.24;97382.28;5025347;28;20033;-74
2023/03/13 04:54:55;;;;;;;24.73;22.53;;;;;;;7.19;80.61;97370.44;5009926;28;20419;-73
2023/03/13 04:57:39;;;;;;;23.23;21.33;;;;;;;7.17;81.79;97369.84;5010414;28;20276;-74
2023/03/13 05:00:20;;;;;;;23.38;21.50;;;;;;;7.19;81.06;97365.09;4995821;28;20046;-74
2023/03/13 05:03:04;;;;;;;24.52;22.52;;;;;;;7.22;80.94;97364.56;5023411;28;20045;-74
2023/03/13 05:05:45;;;;;;;25.58;23.50;;;;;;;7.25;80.56;97364.09;5024307;28;20037;-74
2023/03/13 05:08:20;;;;;;;22.38;20.38;;;;;;;7.20;80.75;97355.97;4991839;28;20039;-75
2023/03/13 05:11:11;;;;;;;25.55;23.08;;;;;;;7.22;81.88;97361.91;5005594;28;20061;-74
2023/03/13 05:13:54;;;;;;;27.02;24.58;;;;;;;7.18;80.91;97368.81;5011560;28;20401;-75
2023/03/13 05:16:29;;;;;;;29.17;27.30;;;;;;;7.14;82.47;97356.97;5014727;28;20037;-75
2023/03/13 05:19:07;;;;;;;31.00;28.63;;;;;;;7.17;83.24;97372.53;5013426;28;20033;-72
2023/03/13 05:21:58;;;;;;;33.58;31.05;;;;;;;7.02;83.74;97366.94;5003684;28;20096;-75
2023/03/13 05:24:44;;;;;;;36.63;34.28;;;;;;;7.02;84.14;97350.88;5013990;28;20042;-77
2023/03/13 05:27:28;;;;;;;37.08;34.33;;;;;;;7.06;84.38;97357.34;4999791;28;20029;-75
2023/03/13 05:30:12;;;;;;;37.65;35.08;;;;;;;6.96;86.66;97347.28;5007764;28;20052;-73
2023/03/13 05:32:56;;;;;;;40.15;37.20;;;;;;;7.00;85.73;97344.94;5001465;28;20064;-74
2023/03/13 05:35:45;;;;;;;43.58;40.55;;;;;;;6.94;86.42;97336.84;4999804;28;20030;-74
2023/03/13 05:38:29;;;;;;;42.17;39.17;;;;;;;6.93;86.22;97340.56;5013362;28;20049;-75
2023/03/13 05:41:17;;;;;;;47.38;44.05;;;;;;;6.86;86.59;97339.09;5011626;28;20100;-75
2023/03/13 05:43:55;;;;;;;48.08;45.00;;;;;;;6.83;87.74;97329.69;5029494;28;20425;-74
2023/03/13 05:46:36;;;;;;;46.92;44.13;;;;;;;6.79;87.37;97323.19;4998555;28;20547;-75
2023/03/13 05:49:27;;;;;;;48.80;45.80;;;;;;;6.92;87.21;97333.59;5010692;28;20049;-74
2023/03/13 05:52:04;;;;;;;49.83;46.45;;;;;;;6.85;88.21;97321.41;5012619;28;20038;-74
2023/03/13 05:54:46;;;;;;;51.17;47.83;;;;;;;6.82;88.13;97311.19;5025740;28;20029;-73
2023/03/13 05:57:11;;;;;;;51.00;47.72;;;;;;;6.82;87.73;97314.69;5013174;28;20540;-75
2023/03/13 05:59:44;;;;;;;48.33;44.88;;;;;;;6.75;88.99;97303.31;4997227;28;20033;-75
2023/03/13 06:02:28;;;;;;;49.38;45.97;;;;;;;6.78;88.49;97294.81;5014161;28;20048;-75
2023/03/13 06:04:55;;;;;;;44.85;42.15;;;;;;;6.84;89.31;97293.84;5025531;28;20061;-74
2023/03/13 06:07:20;;;;;;;42.88;39.95;;;;;;;6.85;88.97;97295.47;5028928;28;20053;-75
2023/03/13 06:09:46;;;;;;;45.03;42.28;;;;;;;6.93;88.25;97292.38;4996213;28;20124;-74
2023/03/13 06:12:12;;;;;;;47.85;44.40;;;;;;;6.93;88.99;97281.66;5029011;28;20117;-75
2023/03/13 06:14:38;;;;;;;47.83;44.67;;;;;;;6.98;88.40;97284.44;5008807;28;20030;-75
2023/03/13 06:17:12;;;;;;;46.13;43.33;;;;;;;7.04;87.98;97281.84;4997286;28;20130;-74
2023/03/13 06:19:38;;;;;;;47.40;44.25;;;;;;;7.05;88.46;97283.47;5008988;28;20113;-75
2023/03/13 06:22:03;;;;;;;49.67;46.28;;;;;;;7.11;89.02;97282.47;5020427;28;20040;-75
2023/03/13 06:24:29;;;;;;;52.35;48.28;;;;;;;7.13;88.01;97277.69;5012790;28;20073;-76
2023/03/13 06:26:54;;;;;;;48.08;44.97;;;;;;;7.14;89.09;97279.31;5011702;28;20025;-75
2023/03/13 06:29:19;;;;;;;48.63;45.45;;;;;;;7.13;88.05;97275.00;4995676;28;20462;-75
2023/03/13 06:31:45;;;;;;;49.13;46.15;;;;;;;7.17;88.34;97273.47;5023044;28;20028;-75
2023/03/13 06:34:11;;;;;;;48.05;44.70;;;;;;;7.21;88.27;97278.06;5014107;28;20112;-75
2023/03/13 06:36:36;;;;;;;47.58;44.13;;;;;;;7.20;87.69;97264.94;5012021;28;20029;-75
2023/03/13 06:39:02;;;;;;;48.45;45.42;;;;;;;7.27;88.38;97268.25;5013047;28;20045;-75
2023/03/13 06:41:27;;;;;;;48.38;45.45;;;;;;;7.28;88.33;97272.56;5028400;28;20024;-74
2023/03/13 06:43:52;;;;;;;51.85;48.72;;;;;;;7.34;88.40;97267.03;4995213;28;20124;-75
2023/03/13 06:46:21;;;;;;;50.95;47.63;;;;;;;7.35;88.07;97268.66;4995662;28;20029;-74
2023/03/13 06:48:46;;;;;;;48.85;45.90;;;;;;;7.41;88.10;97266.84;5011845;28;20076;-76
2023/03/13 06:51:13;;;;;;;49.95;47.13;;;;;;;7.42;88.33;97269.28;5011773;28;20065;-74
2023/03/13 06:53:39;;;;;;;58.40;54.33;;;;;;;7.51;87.79;97272.38;5011468;28;20088;-74
2023/03/13 06:56:05;;;;;;;52.35;48.75;;;;;;;7.43;87.59;97264.75;5011655;28;20025;-75
2023/03/13 06:58:31;;;;;;;52.55;49.35;;;;;;;7.42;88.13;97279.22;5011567;28;20030;-75
2023/03/13 07:00:56;;;;;;;50.10;47.10;;;;;;;7.50;87.96;97265.38;5027891;28;20033;-75
2023/03/13 07:03:21;;;;;;;55.50;51.50;;;;;;;7.51;87.93;97273.16;4999000;28;20528;-74
2023/03/13 07:05:47;;;;;;;51.10;47.72;;;;;;;7.50;88.45;97276.09;5031390;28;20536;-75
2023/03/13 07:08:12;;;;;;;50.38;47.28;;;;;;;7.52;87.74;97277.47;5030224;28;20041;-74
2023/03/13 07:10:38;;;;;;;49.10;45.92;;;;;;;7.53;88.04;97280.97;5010456;28;20029;-75
2023/03/13 07:13:04;;;;;;;52.38;48.90;;;;;;;7.52;88.82;97268.59;5011027;28;20119;-75
2023/03/13 07:15:29;;;;;;;51.97;48.35;;;;;;;7.48;88.38;97273.66;5011487;28;20121;-75
2023/03/13 07:17:57;;;;;;;55.90;51.83;;;;;;;7.49;88.95;97285.19;5027559;28;20029;-74
2023/03/13 07:20:23;;;;;;;56.75;52.78;;;;;;;7.57;88.99;97287.44;5022431;28;20092;-75
2023/03/13 07:22:52;;;;;;;55.03;51.28;;;;;;;7.60;89.24;97289.63;5014210;28;20045;-75
2023/03/13 07:25:18;;;;;;;55.38;52.10;;;;;;;7.64;89.09;97294.25;5012160;28;20084;-75
2023/03/13 07:27:43;;;;;;;54.83;51.42;;;;;;;7.70;89.19;97287.09;5007874;28;20030;-75
2023/03/13 07:30:09;;;;;;;54.72;51.47;;;;;;;7.69;88.51;97280.09;5003772;28;20472;-75
2023/03/13 07:32:34;;;;;;;54.50;51.03;;;;;;;7.74;88.28;97266.78;5011851;28;20068;-75
2023/03/13 07:35:02;;;;;;;55.25;51.78;;;;;;;7.84;88.46;97266.88;5005552;28;20041;-75
2023/03/13 07:37:27;;;;;;;53.22;49.75;;;;;;;7.96;88.16;97264.09;5017198;28;20041;-75
2023/03/13 07:39:52;;;;;;;53.55;50.38;;;;;;;7.93;88.56;97257.38;5019151;28;20080;-75
2023/03/13 07:42:18;;;;;;;52.42;49.13;;;;;;;7.95;88.57;97252.56;5027266;28;20132;-75
2023/03/13 07:44:44;;;;;;;52.20;48.97;;;;;;;7.98;88.19;97256.59;5021442;28;20030;-76
2023/03/13 07:47:10;;;;;;;53.70;50.38;;;;;;;7.98;88.14;97235.94;5014392;28;20120;-75
2023/03/13 07:49:40;;;;;;;54.67;51.13;;;;;;;7.94;88.70;97245.56;5037918;28;20064;-75
2023/03/13 07:52:05;;;;;;;52.47;49.17;;;;;;;8.02;88.38;97242.44;5014423;28;20037;-75
2023/03/13 07:54:31;;;;;;;52.08;48.90;;;;;;;8.06;88.08;97253.47;5010613;28;20390;-75
2023/03/13 07:56:56;;;;;;;50.75;47.83;;;;;;;8.14;87.51;97261.91;5024970;28;20038;-76
2023/03/13 07:59:21;;;;;;;50.80;47.65;;;;;;;8.18;88.23;97267.56;5010787;28;20025;-74
2023/03/13 08:01:47;;;;;;;51.10;48.28;;;;;;;8.12;88.01;97253.28;5016493;28;20125;-75
2023/03/13 08:04:13;;;;;;;53.75;50.45;;;;;;;8.15;88.19;97258.13;5018827;28;20025;-75
2023/03/13 08:06:39;;;;;;;52.58;49.58;;;;;;;8.16;87.53;97251.72;5011868;28;20026;-75
2023/03/13 08:09:05;;;;;;;52.97;49.75;;;;;;;8.15;87.88;97257.31;5010711;28;20032;-75
2023/03/13 08:11:30;;;;;;;55.13;51.88;;;;;;;8.16;88.01;97267.81;4994060;28;20128;-75
2023/03/13 08:13:56;;;;;;;52.78;49.50;;;;;;;8.21;88.29;97251.75;5005419;28;20032;-76
2023/03/13 08:16:24;;;;;;;55.08;51.97;;;;;;;8.31;87.60;97264.50;5012188;28;20038;-75
2023/03/13 08:18:52;;;;;;;54.28;51.20;;;;;;;8.43;87.74;97253.59;5004088;28;20485;-75
2023/03/13 08:21:26;;;;;;;51.92;48.92;;;;;;;8.43;87.40;97256.28;5009857;28;20060;-75
2023/03/13 08:23:54;;;;;;;51.05;48.05;;;;;;;8.51;87.36;97245.13;4996518;28;20129;-75
2023/03/13 08:26:20;;;;;;;52.20;49.20;;;;;;;8.53;87.65;97254.53;5018501;28;20029;-75
2023/03/13 08:28:47;;;;;;;49.95;47.25;;;;;;;8.50;87.68;97259.59;5017001;28;20026;-75
2023/03/13 08:31:15;;;;;;;49.65;47.03;;;;;;;8.61;86.50;97258.63;5006661;28;20088;-75
2023/03/13 08:33:44;;;;;;;50.40;47.83;;;;;;;8.69;87.58;97252.78;5018362;28;20040;-75
2023/03/13 08:36:14;;;;;;;49.75;47.03;;;;;;;8.75;87.06;97251.78;5009353;28;20535;-76
2023/03/13 08:38:43;;;;;;;48.58;46.15;;;;;;;8.69;86.71;97247.41;5008315;28;20041;-75
2023/03/13 08:41:14;;;;;;;50.30;47.60;;;;;;;8.76;86.50;97266.81;5017078;28;20041;-75
2023/03/13 08:43:39;;;;;;;51.65;48.75;;;;;;;8.79;87.25;97252.88;5030418;28;20034;-75
2023/03/13 08:46:04;;;;;;;51.97;49.33;;;;;;;8.78;87.30;97262.00;5010041;28;20029;-76
2023/03/13 08:48:30;;;;;;;49.72;47.13;;;;;;;8.86;86.06;97238.19;5012464;28;20076;-75
2023/03/13 08:51:07;;;;;;;50.22;47.58;;;;;;;9.00;85.75;97243.94;5014078;28;20026;-76
2023/03/13 08:53:34;;;;;;;50.13;47.72;;;;;;;9.05;85.89;97249.34;5010536;28;20034;-75
2023/03/13 08:55:59;;;;;;;49.17;46.67;;;;;;;9.07;86.19;97239.13;5013589;28;20032;-76
2023/03/13 08:58:24;;;;;;;48.22;45.75;;;;;;;9.13;86.18;97248.84;4994392;28;20030;-76
2023/03/13 09:00:50;;;;;;;51.53;48.95;;;;;;;9.16;85.89;97237.59;5013643;28;20083;-76
2023/03/13 09:03:16;;;;;;;55.15;52.03;;;;;;;9.18;85.68;97240.81;5026612;28;20125;-75
2023/03/13 09:05:42;;;;;;;50.70;48.10;;;;;;;9.15;86.64;97260.13;5029995;28;20022;-75
2023/03/13 09:08:08;;;;;;;50.67;48.17;;;;;;;9.23;86.14;97243.53;5013984;28;20567;-76
2023/03/13 09:10:34;;;;;;;51.97;49.05;;;;;;;9.23;85.57;97254.28;5008499;28;20056;-79
2023/03/13 09:12:59;;;;;;;52.20;49.70;;;;;;;9.28;86.22;97246.28;5006463;28;20038;-75
2023/03/13 09:15:25;;;;;;;52.50;49.85;;;;;;;9.35;84.99;97256.78;5006348;28;20024;-75
2023/03/13 09:17:50;;;;;;;52.65;50.25;;;;;;;9.16;86.52;97252.88;5029900;28;20065;-75
2023/03/13 09:20:17;;;;;;;53.90;51.25;;;;;;;9.25;85.06;97241.41;5013191;28;20104;-73
2023/03/13 09:22:43;;;;;;;51.00;48.17;;;;;;;9.26;85.44;97243.03;4997343;28;20039;-75
2023/03/13 09:25:08;;;;;;;51.67;49.25;;;;;;;9.23;85.41;97237.34;4996751;28;20085;-75
2023/03/13 09:27:34;;;;;;;52.00;49.60;;;;;;;9.33;84.98;97240.94;5016779;28;20041;-75
2023/03/13 09:29:59;;;;;;;52.45;49.75;;;;;;;9.36;85.20;97220.78;5024123;28;20029;-75
2023/03/13 09:32:25;;;;;;;54.85;52.05;;;;;;;9.41;85.38;97228.84;5013181;28;20535;-76
2023/03/13 09:34:50;;;;;;;54.00;51.30;;;;;;;9.26;85.72;97218.84;5022971;28;20025;-76
2023/03/13 09:37:15;;;;;;;52.55;50.03;;;;;;;9.43;85.91;97221.34;5003228;28;20038;-75
2023/03/13 09:39:41;;;;;;;53.20;50.40;;;;;;;9.44;85.24;97214.91;5024154;28;20112;-76
2023/03/13 09:42:15;;;;;;;53.33;50.63;;;;;;;9.46;85.63;97218.97;5009324;28;20068;-75
2023/03/13 09:44:45;;;;;;;51.47;48.58;;;;;;;9.54;84.90;97220.34;5023213;28;20033;-75
2023/03/13 09:47:23;;;;;;;50.30;47.60;;;;;;;9.40;85.37;97227.25;5013641;28;20125;-75
2023/03/13 09:50:02;;;;;;;49.78;47.22;;;;;;;9.53;85.31;97235.66;4995824;28;20048;-75
2023/03/13 09:52:35;;;;;;;51.42;48.95;;;;;;;9.59;85.27;97234.59;5001210;28;20442;-75
2023/03/13 09:55:20;;;;;;;52.20;49.60;;;;;;;9.58;85.14;97246.44;5015112;28;20037;-75
2023/03/13 09:58:00;;;;;;;56.47;53.17;;;;;;;9.56;86.04;97253.97;5020821;28;20042;-75
2023/03/13 10:00:29;;;;;;;55.70;52.70;;;;;;;9.67;85.56;97254.81;5012411;28;20034;-75
2023/03/13 10:02:57;;;;;;;53.75;50.88;;;;;;;9.66;85.66;97254.00;4994802;28;20022;-76
2023/03/13 10:05:27;;;;;;;53.88;50.97;;;;;;;9.85;85.35;97256.25;5024510;28;20398;-76
2023/03/13 10:08:09;;;;;;;54.70;51.90;;;;;;;9.80;85.33;97248.16;5012976;28;20088;-76
2023/03/13 10:11:01;;;;;;;54.47;51.42;;;;;;;10.05;85.39;97250.94;5022974;28;20040;-76
2023/03/13 10:13:34;;;;;;;50.22;47.72;;;;;;;10.04;85.84;97244.75;4999438;28;20050;-75
2023/03/13 10:16:01;;;;;;;51.35;48.95;;;;;;;10.35;84.89;97237.59;5011954;28;20038;-75
2023/03/13 10:18:27;;;;;;;47.75;45.33;;;;;;;10.66;84.24;97244.66;5012246;28;20029;-75
2023/03/13 10:20:57;;;;;;;46.70;44.40;;;;;;;10.60;84.13;97226.88;5009216;28;20108;-75
2023/03/13 10:24:04;;;;;;;43.22;41.25;;;;;;;11.07;82.62;97230.09;5012020;28;20037;-75
2023/03/13 10:26:33;;;;;;;39.97;38.08;;;;;;;11.23;82.15;97225.50;5000326;28;20042;-75
2023/03/13 10:29:13;;;;;;;39.15;37.40;;;;;;;11.34;81.99;97231.69;5012839;28;20026;-75
2023/03/13 10:31:38;;;;;;;37.30;35.70;;;;;;;11.52;81.37;97250.78;5006043;28;20121;-75
2023/03/13 10:34:09;;;;;;;36.35;34.72;;;;;;;11.55;81.08;97244.03;5025101;28;20138;-75
2023/03/13 10:36:40;;;;;;;29.05;27.67;;;;;;;11.79;79.62;97229.69;5012075;28;20523;-75
2023/03/13 10:39:12;;;;;;;33.28;31.77;;;;;;;11.87;80.81;97222.94;4999592;28;20079;-75
2023/03/13 10:41:37;;;;;;;34.10;32.40;;;;;;;11.88;80.30;97224.53;5019476;28;20042;-75
2023/03/13 10:44:14;;;;;;;29.20;28.00;;;;;;;11.99;79.48;97218.03;5011545;28;20017;-75
2023/03/13 10:46:42;;;;;;;28.70;27.55;;;;;;;12.12;79.60;97228.19;5011746;28;20034;-75
2023/03/13 10:49:26;;;;;;;25.35;24.15;;;;;;;12.28;78.69;97210.84;5024954;28;20033;-75
2023/03/13 10:51:54;;;;;;;25.67;24.27;;;;;;;12.29;79.11;97217.03;5008535;28;20378;-75
2023/03/13 10:54:31;;;;;;;29.63;28.27;;;;;;;12.25;79.38;97211.38;5011590;28;20018;-75
2023/03/13 10:57:22;;;;;;;31.30;29.90;;;;;;;12.24;78.87;97209.78;5011695;28;20441;-75
2023/03/13 10:59:49;;;;;;;25.85;24.75;;;;;;;12.22;79.07;97214.66;5012420;28;20084;-75
2023/03/13 11:02:22;;;;;;;25.05;23.77;;;;;;;12.28;78.43;97202.72;5027078;28;20037;-75
2023/03/13 11:04:52;;;;;;;22.70;21.42;;;;;;;12.49;77.37;97187.19;5012988;28;20108;-75
2023/03/13 11:07:47;;;;;;;22.08;21.08;;;;;;;12.58;78.12;97203.63;5011539;28;20037;-75
2023/03/13 11:10:12;;;;;;;21.92;20.88;;;;;;;12.52;77.96;97188.53;5002377;28;20073;-75
2023/03/13 11:12:47;;;;;;;20.88;19.77;;;;;;;12.58;76.93;97171.22;5017708;28;20026;-75
2023/03/13 11:15:16;;;;;;;15.52;14.82;;;;;;;12.55;77.24;97187.97;4994898;28;20060;-75
2023/03/13 11:17:41;;;;;;;16.27;15.38;;;;;;;12.66;76.70;97176.00;5010386;28;20058;-75
2023/03/13 11:20:22;;;;;;;18.20;17.25;;;;;;;12.52;76.90;97177.72;5011232;28;20040;-75
2023/03/13 11:23:00;;;;;;;20.20;19.30;;;;;;;12.49;77.09;97169.09;5024332;28;20051;-76
2023/03/13 11:25:38;;;;;;;19.30;18.40;;;;;;;12.40;77.46;97173.50;5011797;28;20037;-75
2023/03/13 11:28:16;;;;;;;20.65;19.65;;;;;;;12.39;77.84;97179.19;4999209;28;20118;-75
2023/03/13 11:31:02;;;;;;;18.20;17.38;;;;;;;12.44;77.65;97176.44;5011066;28;20464;-75
2023/03/13 11:33:35;;;;;;;19.55;18.30;;;;;;;12.46;77.29;97164.25;4994512;28;20034;-75
2023/03/13 11:36:13;;;;;;;20.02;19.13;;;;;;;12.41;77.72;97161.63;5011219;28;20482;-74
2023/03/13 11:38:41;;;;;;;20.33;19.33;;;;;;;12.47;77.35;97165.88;5007870;28;20037;-76
2023/03/13 11:41:22;;;;;;;20.92;20.02;;;;;;;12.58;77.39;97146.91;4978737;28;20033;-75